Time;durP1;ratioP1;P1;durP2;ratioP2;P2;SDS_P1;SDS_P2;PMS_P1;PMS_P2;Temp;Humidity;BMP_temperature;BMP_pressure;BME280_temperature;BME280_humidity;BME280_pressure;Samples;Min_cycle;Max_cycle;Signal;HPM_P1;HPM_P2
2023/12/16 00:00:51;;;;;;;1.33;1.20;;;7.10;99.90;;;;;;5055583;28;20044;-72
2023/12/16 00:03:17;;;;;;;1.55;1.05;;;7.00;99.90;;;;;;5054526;28;20055;-73
2023/12/16 00:05:42;;;;;;;2.05;1.10;;;7.10;99.90;;;;;;5055464;28;20041;-73
2023/12/16 00:08:08;;;;;;;1.45;1.00;;;7.10;99.90;;;;;;5054073;28;20128;-73
2023/12/16 00:10:34;;;;;;;1.90;1.20;;;7.10;99.90;;;;;;5055594;28;20080;-72
2023/12/16 00:12:59;;;;;;;3.30;1.73;;;7.10;99.90;;;;;;5054071;28;20045;-73
2023/12/16 00:15:25;;;;;;;2.03;1.20;;;7.10;99.90;;;;;;5037465;28;20063;-73
2023/12/16 00:17:51;;;;;;;2.85;1.33;;;7.20;99.90;;;;;;5053944;28;20044;-73
2023/12/16 00:20:16;;;;;;;2.30;1.60;;;7.30;99.90;;;;;;5055217;28;20124;-73
2023/12/16 00:22:42;;;;;;;1.90;1.35;;;7.10;99.90;;;;;;5055403;28;20521;-73
2023/12/16 00:25:08;;;;;;;1.58;1.27;;;7.10;99.90;;;;;;5055035;28;20476;-72
2023/12/16 00:27:37;;;;;;;1.90;1.33;;;7.20;99.90;;;;;;5055279;28;20095;-73
2023/12/16 00:30:05;;;;;;;2.15;1.23;;;7.40;99.90;;;;;;5055299;28;20048;-73
2023/12/16 00:32:30;;;;;;;1.77;1.25;;;7.20;99.90;;;;;;5055196;28;20076;-73
2023/12/16 00:34:56;;;;;;;2.72;1.23;;;7.10;99.90;;;;;;5055287;28;20073;-63
2023/12/16 00:37:21;;;;;;;1.73;1.08;;;7.10;99.90;;;;;;5053574;28;20033;-63
2023/12/16 00:39:47;;;;;;;1.38;0.80;;;7.10;99.90;;;;;;5054822;28;20481;-64
2023/12/16 00:42:13;;;;;;;2.17;1.23;;;7.30;99.90;;;;;;5055059;28;20045;-63
2023/12/16 00:44:38;;;;;;;2.38;1.48;;;7.10;99.90;;;;;;5054864;28;20045;-65
2023/12/16 00:47:04;;;;;;;1.40;1.10;;;7.10;99.90;;;;;;5054922;28;20059;-65
2023/12/16 00:49:30;;;;;;;1.15;1.02;;;7.00;99.90;;;;;;5054839;28;20044;-65
2023/12/16 00:51:56;;;;;;;1.35;1.00;;;7.00;99.90;;;;;;5054523;28;20493;-65
2023/12/16 00:54:22;;;;;;;0.98;0.88;;;6.90;99.90;;;;;;5054433;28;20033;-65
2023/12/16 00:56:49;;;;;;;1.55;1.30;;;6.90;99.90;;;;;;5054800;28;20040;-65
2023/12/16 00:59:16;;;;;;;2.35;1.25;;;6.90;99.90;;;;;;5054409;28;20175;-65
2023/12/16 01:01:42;;;;;;;2.03;1.20;;;6.90;99.90;;;;;;5054457;28;20083;-65
2023/12/16 01:04:09;;;;;;;2.25;1.13;;;6.90;99.90;;;;;;5053479;28;20551;-65
2023/12/16 01:06:34;;;;;;;2.03;1.10;;;6.90;99.90;;;;;;5054584;28;20432;-65
2023/12/16 01:09:00;;;;;;;2.25;1.30;;;7.10;99.90;;;;;;5053996;28;20049;-65
2023/12/16 01:11:26;;;;;;;1.58;1.25;;;6.90;99.90;;;;;;5053006;28;20056;-65
2023/12/16 01:13:51;;;;;;;1.27;1.00;;;6.80;99.90;;;;;;5054387;28;20083;-65
2023/12/16 01:16:17;;;;;;;2.25;1.17;;;6.80;99.90;;;;;;5054353;28;20043;-65
2023/12/16 01:18:43;;;;;;;1.48;1.10;;;6.80;99.90;;;;;;5052801;28;20409;-65
2023/12/16 01:21:09;;;;;;;1.75;1.35;;;6.80;99.90;;;;;;5054012;28;20049;-65
2023/12/16 01:23:36;;;;;;;1.48;1.05;;;6.70;99.90;;;;;;5053911;28;20120;-65
2023/12/16 01:26:05;;;;;;;2.42;0.93;;;6.70;99.90;;;;;;5053938;28;20036;-65
2023/12/16 01:28:31;;;;;;;2.97;1.33;;;6.70;99.90;;;;;;5053782;28;20048;-65
2023/12/16 01:30:57;;;;;;;1.48;1.33;;;6.70;99.90;;;;;;5054051;28;20033;-65
2023/12/16 01:33:22;;;;;;;2.05;1.17;;;6.70;99.90;;;;;;5054086;28;20064;-65
2023/12/16 01:35:48;;;;;;;1.33;1.13;;;6.60;99.90;;;;;;5053842;28;20404;-65
2023/12/16 01:38:14;;;;;;;2.60;1.38;;;6.60;99.90;;;;;;5053605;28;20055;-65
2023/12/16 01:40:40;;;;;;;2.97;1.42;;;6.60;99.90;;;;;;5053973;28;20123;-65
2023/12/16 01:43:08;;;;;;;2.58;1.40;;;6.60;99.90;;;;;;5053869;28;20037;-65
2023/12/16 01:45:34;;;;;;;0.90;0.90;;;6.60;99.90;;;;;;5035898;28;20063;-62
2023/12/16 01:48:02;;;;;;;2.33;1.20;;;6.60;99.90;;;;;;5053741;28;20044;-63
2023/12/16 01:50:29;;;;;;;1.77;1.08;;;6.60;99.90;;;;;;5053535;28;20099;-62
2023/12/16 01:52:56;;;;;;;1.48;1.23;;;6.60;99.90;;;;;;5053639;28;20121;-63
2023/12/16 01:55:22;;;;;;;3.33;1.20;;;6.60;99.90;;;;;;5053808;28;20499;-65
2023/12/16 01:57:48;;;;;;;1.13;0.90;;;6.60;99.90;;;;;;5053624;28;20033;-65
2023/12/16 02:00:14;;;;;;;2.33;1.20;;;6.50;99.90;;;;;;5052620;28;20044;-65
2023/12/16 02:02:41;;;;;;;3.42;1.25;;;6.50;99.90;;;;;;5052060;28;20112;-65
2023/12/16 02:05:07;;;;;;;1.30;1.20;;;6.50;99.90;;;;;;5053236;28;20048;-65
2023/12/16 02:07:33;;;;;;;2.33;1.42;;;6.40;99.90;;;;;;5051773;28;20061;-65
2023/12/16 02:10:01;;;;;;;1.52;1.27;;;6.40;99.90;;;;;;5053004;28;20490;-65
2023/12/16 02:12:27;;;;;;;1.50;1.17;;;6.40;99.90;;;;;;5053078;28;20064;-65
2023/12/16 02:14:53;;;;;;;1.00;0.90;;;6.30;99.90;;;;;;5052719;28;20464;-65
2023/12/16 02:17:19;;;;;;;1.63;1.10;;;6.30;99.90;;;;;;5053343;28;20068;-65
2023/12/16 02:19:47;;;;;;;2.05;1.23;;;6.30;99.90;;;;;;5053005;28;20063;-65
2023/12/16 02:22:13;;;;;;;2.25;1.00;;;6.20;99.90;;;;;;5053206;28;20072;-65
2023/12/16 02:24:41;;;;;;;1.75;1.20;;;6.20;99.90;;;;;;5053256;28;20435;-65
2023/12/16 02:27:08;;;;;;;1.30;1.20;;;6.20;99.90;;;;;;5051896;28;20041;-65
2023/12/16 02:29:33;;;;;;;3.05;1.25;;;6.20;99.90;;;;;;5052757;28;20051;-65
2023/12/16 02:31:59;;;;;;;1.75;1.35;;;6.20;99.90;;;;;;5051586;28;20045;-65
2023/12/16 02:34:25;;;;;;;1.33;1.10;;;6.20;99.90;;;;;;5051689;28;20396;-65
2023/12/16 02:36:51;;;;;;;1.88;1.15;;;6.40;99.90;;;;;;5051533;28;20131;-65
2023/12/16 02:39:17;;;;;;;1.10;1.00;;;6.20;99.90;;;;;;5052986;28;20124;-65
2023/12/16 02:41:43;;;;;;;1.50;1.20;;;6.20;99.90;;;;;;5051430;28;20455;-65
2023/12/16 02:44:08;;;;;;;1.77;0.90;;;6.20;99.90;;;;;;5052703;28;20037;-65
2023/12/16 02:46:34;;;;;;;2.00;1.10;;;6.10;99.90;;;;;;5051408;28;20109;-65
2023/12/16 02:48:59;;;;;;;3.55;1.33;;;6.20;99.90;;;;;;5052532;28;20037;-65
2023/12/16 02:51:25;;;;;;;1.65;1.00;;;6.10;99.90;;;;;;5051414;28;20036;-65
2023/12/16 02:53:52;;;;;;;2.38;1.02;;;6.10;99.90;;;;;;5051619;28;20497;-65
2023/12/16 02:56:18;;;;;;;2.25;1.50;;;6.10;99.90;;;;;;5052958;28;20041;-62
2023/12/16 02:58:44;;;;;;;1.23;1.10;;;6.10;99.90;;;;;;5052454;28;20037;-62
2023/12/16 03:01:09;;;;;;;1.05;0.95;;;6.10;99.90;;;;;;5051563;28;20081;-62
2023/12/16 03:03:39;;;;;;;1.73;1.20;;;6.10;99.90;;;;;;5051562;28;20112;-63
2023/12/16 03:06:06;;;;;;;2.60;1.30;;;6.10;99.90;;;;;;5052638;28;20462;-73
2023/12/16 03:08:32;;;;;;;2.22;1.13;;;6.10;99.90;;;;;;5051091;28;20041;-73
2023/12/16 03:10:58;;;;;;;2.15;0.93;;;6.10;99.90;;;;;;5051555;28;20507;-72
2023/12/16 03:13:24;;;;;;;2.22;1.25;;;6.00;99.90;;;;;;5052770;28;20041;-72
2023/12/16 03:15:50;;;;;;;1.73;1.10;;;6.00;99.90;;;;;;5051190;28;20075;-71
2023/12/16 03:18:15;;;;;;;1.40;1.20;;;6.00;99.90;;;;;;5051149;28;20048;-72
2023/12/16 03:20:41;;;;;;;6.55;1.45;;;5.90;99.90;;;;;;5052683;28;20045;-72
2023/12/16 03:23:07;;;;;;;1.88;1.02;;;5.90;99.90;;;;;;5051088;28;20044;-72
2023/12/16 03:25:32;;;;;;;2.80;1.23;;;5.80;99.90;;;;;;5052450;28;20048;-74
2023/12/16 03:27:58;;;;;;;10.00;1.60;;;5.80;99.90;;;;;;5056395;28;20098;-71
2023/12/16 03:30:23;;;;;;;2.47;1.35;;;5.80;99.90;;;;;;5054939;28;20048;-73
2023/12/16 03:32:49;;;;;;;2.97;1.33;;;5.80;99.90;;;;;;5056323;28;20443;-73
2023/12/16 03:35:15;;;;;;;1.70;0.88;;;5.90;99.90;;;;;;5054790;28;20082;-73
2023/12/16 03:37:40;;;;;;;3.10;1.40;;;5.80;99.90;;;;;;5054759;28;20041;-74
2023/12/16 03:40:06;;;;;;;2.72;1.40;;;5.80;99.90;;;;;;5054705;28;20044;-72
2023/12/16 03:42:33;;;;;;;1.77;1.15;;;5.80;99.90;;;;;;5054605;28;20047;-73
2023/12/16 03:44:59;;;;;;;3.15;1.55;;;5.80;99.90;;;;;;5056125;28;20037;-73
2023/12/16 03:47:24;;;;;;;2.50;1.45;;;5.70;99.90;;;;;;5054650;28;20481;-72
2023/12/16 03:49:50;;;;;;;3.58;1.30;;;5.70;99.90;;;;;;5055723;28;20124;-73
2023/12/16 03:52:16;;;;;;;2.28;1.38;;;5.70;99.90;;;;;;5038199;28;20076;-73
2023/12/16 03:54:41;;;;;;;1.83;1.25;;;5.70;99.90;;;;;;5054476;28;20067;-72
2023/12/16 03:57:07;;;;;;;1.92;0.90;;;5.70;99.90;;;;;;5055640;28;20090;-73
2023/12/16 03:59:32;;;;;;;2.28;1.27;;;5.70;99.90;;;;;;5055523;28;20041;-73
2023/12/16 04:01:58;;;;;;;2.00;1.27;;;5.90;99.90;;;;;;5055801;28;20484;-72
2023/12/16 04:04:24;;;;;;;1.25;1.05;;;5.90;99.90;;;;;;5054348;28;20087;-72
2023/12/16 04:06:49;;;;;;;2.78;1.45;;;5.70;99.90;;;;;;5054096;28;20041;-65
2023/12/16 04:09:15;;;;;;;3.10;1.60;;;5.80;99.90;;;;;;5055340;28;20135;-65
2023/12/16 04:11:48;;;;;;;2.83;1.13;;;5.60;99.90;;;;;;5055609;28;20112;-65
2023/12/16 04:14:15;;;;;;;2.75;1.70;;;5.70;99.90;;;;;;5055279;28;20076;-65
2023/12/16 04:16:40;;;;;;;2.20;1.27;;;5.50;99.90;;;;;;5055222;28;20087;-59
2023/12/16 04:19:06;;;;;;;0.88;0.80;;;5.70;99.90;;;;;;5055618;28;20049;-60
2023/12/16 04:21:34;;;;;;;2.30;1.42;;;5.40;99.90;;;;;;5053876;28;20041;-60
2023/12/16 04:24:00;;;;;;;2.60;1.30;;;5.60;99.90;;;;;;5055465;28;20135;-59
2023/12/16 04:26:26;;;;;;;1.85;1.30;;;5.40;99.90;;;;;;5055320;28;20119;-59
2023/12/16 04:28:51;;;;;;;3.28;1.52;;;5.60;99.90;;;;;;5053803;28;20485;-60
2023/12/16 04:31:17;;;;;;;1.90;1.23;;;5.50;99.90;;;;;;5053752;28;20037;-59
2023/12/16 04:33:46;;;;;;;2.00;1.38;;;5.60;99.90;;;;;;5053755;28;20103;-59
2023/12/16 04:36:14;;;;;;;1.65;1.08;;;5.50;99.90;;;;;;5055283;28;20045;-59
2023/12/16 04:38:40;;;;;;;2.38;1.35;;;5.50;99.90;;;;;;5053638;28;20127;-59
2023/12/16 04:41:06;;;;;;;2.80;1.58;;;5.50;99.90;;;;;;5054770;28;20041;-59
2023/12/16 04:43:32;;;;;;;2.47;1.25;;;5.50;99.90;;;;;;5055087;28;20041;-60
2023/12/16 04:45:58;;;;;;;1.92;1.17;;;5.80;99.90;;;;;;5055065;28;20473;-59
2023/12/16 04:48:23;;;;;;;4.00;1.60;;;5.60;99.90;;;;;;5053355;28;20047;-60
2023/12/16 04:50:49;;;;;;;2.95;1.40;;;5.40;99.90;;;;;;5053486;28;20041;-60
2023/12/16 04:53:14;;;;;;;3.13;1.42;;;5.60;99.90;;;;;;5053478;28;20512;-59
2023/12/16 04:55:40;;;;;;;1.88;1.30;;;5.50;99.90;;;;;;5036755;28;20045;-59
2023/12/16 04:58:06;;;;;;;2.95;1.42;;;5.60;99.90;;;;;;5054399;28;20045;-60
2023/12/16 05:00:32;;;;;;;1.98;1.30;;;5.90;99.90;;;;;;5054805;28;20056;-59
2023/12/16 05:02:59;;;;;;;2.15;1.40;;;5.60;99.90;;;;;;5036531;28;20041;-60
2023/12/16 05:05:24;;;;;;;1.88;1.20;;;6.20;99.90;;;;;;5054784;28;20119;-59
2023/12/16 05:07:50;;;;;;;4.18;1.67;;;5.70;99.90;;;;;;5054113;28;20084;-59
2023/12/16 05:10:15;;;;;;;1.88;1.38;;;5.60;99.90;;;;;;5053016;28;20048;-60
2023/12/16 05:12:41;;;;;;;1.58;1.10;;;5.70;99.90;;;;;;5054196;28;20063;-59
2023/12/16 05:15:07;;;;;;;1.80;1.17;;;5.60;99.90;;;;;;5053073;28;20037;-60
2023/12/16 05:17:33;;;;;;;1.73;1.20;;;5.60;99.90;;;;;;5054565;28;20045;-60
2023/12/16 05:19:59;;;;;;;2.78;1.92;;;5.70;99.90;;;;;;5054387;28;20044;-59
2023/12/16 05:22:24;;;;;;;3.33;1.63;;;5.60;99.90;;;;;;5054376;28;20476;-59
2023/12/16 05:24:50;;;;;;;1.95;1.40;;;5.70;99.90;;;;;;5052822;28;20123;-59
2023/12/16 05:27:16;;;;;;;2.42;1.58;;;5.50;99.90;;;;;;5053961;28;20221;-65
2023/12/16 05:29:41;;;;;;;3.58;1.80;;;6.10;99.90;;;;;;5054117;28;20044;-65
2023/12/16 05:32:07;;;;;;;3.45;1.85;;;5.70;99.90;;;;;;5054090;28;20075;-65
2023/12/16 05:34:32;;;;;;;2.40;1.50;;;5.70;99.90;;;;;;5054101;28;20366;-65
2023/12/16 05:36:58;;;;;;;2.05;1.30;;;5.70;99.90;;;;;;5053948;28;20041;-65
2023/12/16 05:39:24;;;;;;;3.25;1.88;;;6.50;99.90;;;;;;5053991;28;20500;-65
2023/12/16 05:41:50;;;;;;;2.38;1.40;;;5.80;99.90;;;;;;5053971;28;20083;-65
2023/12/16 05:44:16;;;;;;;4.35;1.85;;;5.70;99.90;;;;;;5052689;28;20508;-65
2023/12/16 05:46:41;;;;;;;2.53;1.75;;;5.80;99.90;;;;;;5053851;28;20064;-65
2023/12/16 05:49:07;;;;;;;4.13;2.00;;;6.00;99.90;;;;;;5053062;28;20037;-65
2023/12/16 05:51:40;;;;;;;3.35;1.50;;;5.80;99.90;;;;;;5053748;28;20037;-65
2023/12/16 05:54:08;;;;;;;3.95;1.83;;;5.80;99.90;;;;;;5053411;28;20041;-66
2023/12/16 05:56:34;;;;;;;2.65;1.77;;;5.80;99.90;;;;;;5053664;28;20114;-66
2023/12/16 05:58:59;;;;;;;2.08;1.27;;;6.00;99.90;;;;;;5052134;28;20051;-65
2023/12/16 06:01:25;;;;;;;4.82;1.75;;;5.70;99.90;;;;;;5053580;28;20040;-65
2023/12/16 06:03:51;;;;;;;4.82;1.60;;;5.80;99.90;;;;;;5053588;28;20537;-65
2023/12/16 06:06:17;;;;;;;2.90;1.40;;;5.80;99.90;;;;;;5053264;28;20499;-65
2023/12/16 06:08:43;;;;;;;2.83;1.42;;;5.90;99.90;;;;;;5053063;28;20220;-65
2023/12/16 06:11:12;;;;;;;2.83;1.80;;;6.10;99.90;;;;;;5053361;28;20037;-65
2023/12/16 06:13:39;;;;;;;4.28;1.77;;;6.00;99.90;;;;;;5053133;28;20546;-65
2023/12/16 06:16:07;;;;;;;3.55;1.95;;;6.00;99.90;;;;;;5053326;28;20047;-65
2023/12/16 06:18:33;;;;;;;3.67;1.88;;;5.90;99.90;;;;;;5053009;28;20112;-65
2023/12/16 06:20:59;;;;;;;2.08;1.70;;;6.00;99.90;;;;;;5053248;28;20086;-65
2023/12/16 06:23:26;;;;;;;4.35;1.80;;;6.20;99.90;;;;;;5052056;28;20040;-65
2023/12/16 06:25:52;;;;;;;5.13;1.88;;;6.10;99.90;;;;;;5051755;28;20049;-65
2023/12/16 06:28:18;;;;;;;3.08;1.90;;;6.10;99.90;;;;;;5052973;28;20059;-63
2023/12/16 06:30:44;;;;;;;3.42;1.73;;;6.10;99.90;;;;;;5052845;28;20127;-63
2023/12/16 06:33:09;;;;;;;3.70;2.33;;;6.80;99.90;;;;;;5053116;28;20037;-63
2023/12/16 06:35:35;;;;;;;3.17;1.50;;;6.60;99.90;;;;;;5052857;28;20029;-63
2023/12/16 06:38:01;;;;;;;3.15;1.98;;;6.30;99.90;;;;;;5053139;28;20077;-73
2023/12/16 06:40:31;;;;;;;2.47;1.85;;;6.50;99.90;;;;;;5052999;28;20084;-73
2023/12/16 06:42:57;;;;;;;2.15;1.40;;;6.30;99.90;;;;;;5053013;28;20033;-72
2023/12/16 06:45:23;;;;;;;2.70;1.90;;;6.50;99.90;;;;;;5051437;28;20103;-72
2023/12/16 06:47:49;;;;;;;5.05;2.28;;;6.60;99.90;;;;;;5053016;28;20080;-73
2023/12/16 06:50:14;;;;;;;2.17;1.45;;;7.10;99.90;;;;;;5052898;28;20060;-73
2023/12/16 06:52:40;;;;;;;3.97;2.28;;;6.40;99.90;;;;;;5051416;28;20048;-73
2023/12/16 06:55:06;;;;;;;5.05;2.55;;;6.80;99.90;;;;;;5052544;28;20396;-73
2023/12/16 06:57:32;;;;;;;2.13;1.63;;;6.50;99.90;;;;;;5052906;28;20421;-72
2023/12/16 06:59:58;;;;;;;3.00;2.33;;;6.80;99.90;;;;;;5052188;28;20084;-72
2023/12/16 07:02:25;;;;;;;4.07;2.03;;;6.70;99.90;;;;;;5055481;28;20053;-73
2023/12/16 07:04:50;;;;;;;3.05;1.73;;;6.90;99.90;;;;;;5055435;28;20462;-72
2023/12/16 07:07:16;;;;;;;3.60;2.03;;;6.60;99.90;;;;;;5055482;28;20048;-72
2023/12/16 07:09:42;;;;;;;4.03;2.33;;;6.50;99.90;;;;;;5055266;28;20049;-73
2023/12/16 07:12:08;;;;;;;6.75;2.22;;;6.90;99.90;;;;;;5055271;28;20041;-73
2023/12/16 07:14:38;;;;;;;4.32;2.13;;;6.60;99.90;;;;;;5055233;28;20416;-73
2023/12/16 07:17:03;;;;;;;4.80;1.92;;;6.70;99.90;;;;;;5056732;28;20047;-73
2023/12/16 07:19:31;;;;;;;2.88;2.00;;;6.70;99.90;;;;;;5056391;28;20872;-73
2023/12/16 07:21:58;;;;;;;3.55;2.35;;;7.00;99.90;;;;;;5056634;28;20045;-72
2023/12/16 07:24:23;;;;;;;4.65;2.53;;;7.10;99.90;;;;;;5056533;28;20370;-73
2023/12/16 07:26:49;;;;;;;4.00;2.20;;;7.10;99.90;;;;;;5056484;28;20037;-73
2023/12/16 07:29:16;;;;;;;3.50;1.90;;;6.70;99.90;;;;;;5038233;28;20049;-72
2023/12/16 07:31:49;;;;;;;8.13;2.47;;;6.80;99.90;;;;;;5054947;28;20095;-73
2023/12/16 07:34:15;;;;;;;4.60;2.13;;;6.80;99.90;;;;;;5054843;28;20110;-72
2023/12/16 07:36:41;;;;;;;4.40;2.38;;;6.80;99.90;;;;;;5054908;28;20041;-63
2023/12/16 07:39:08;;;;;;;3.22;2.22;;;6.80;99.90;;;;;;5056209;28;20103;-63
2023/12/16 07:41:34;;;;;;;2.95;1.80;;;7.20;99.90;;;;;;5056184;28;20455;-62
2023/12/16 07:44:00;;;;;;;3.08;2.10;;;6.80;99.90;;;;;;5054649;28;20476;-63
2023/12/16 07:46:26;;;;;;;3.25;1.98;;;7.20;99.90;;;;;;5055863;28;20091;-63
2023/12/16 07:48:51;;;;;;;3.50;2.22;;;6.80;99.90;;;;;;5056137;28;20076;-60
2023/12/16 07:51:19;;;;;;;2.53;1.95;;;7.20;99.90;;;;;;5054400;28;20072;-60
2023/12/16 07:53:48;;;;;;;6.13;2.75;;;6.90;99.90;;;;;;5055990;28;20099;-59
2023/12/16 07:56:21;;;;;;;3.60;1.88;;;6.90;99.90;;;;;;5054567;28;20114;-59
2023/12/16 07:58:47;;;;;;;3.40;2.47;;;7.10;99.90;;;;;;5054474;28;20397;-60
2023/12/16 08:01:18;;;;;;;3.70;1.83;;;7.00;99.90;;;;;;5037736;28;20041;-59
2023/12/16 08:03:45;;;;;;;4.00;2.08;;;7.40;99.90;;;;;;5054380;28;20241;-59
2023/12/16 08:06:11;;;;;;;3.08;2.20;;;7.30;99.90;;;;;;5054185;28;20052;-59
2023/12/16 08:08:41;;;;;;;5.15;2.63;;;7.30;99.90;;;;;;5053913;28;20420;-60
2023/12/16 08:11:07;;;;;;;5.93;2.57;;;7.50;99.90;;;;;;5054077;28;20073;-60
2023/12/16 08:13:34;;;;;;;4.38;2.70;;;7.50;99.90;;;;;;5053694;28;20040;-59
2023/12/16 08:16:00;;;;;;;3.22;1.92;;;7.40;99.90;;;;;;5055581;28;20064;-60
2023/12/16 08:18:27;;;;;;;4.65;2.63;;;7.40;99.90;;;;;;5055548;28;20041;-61
2023/12/16 08:20:53;;;;;;;3.25;2.13;;;6.80;99.90;;;;;;5054018;28;20140;-60
2023/12/16 08:23:19;;;;;;;6.43;2.47;;;7.70;99.90;;;;;;5055492;28;20061;-59
2023/12/16 08:25:45;;;;;;;6.68;2.40;;;6.90;99.90;;;;;;5055128;28;20044;-60
2023/12/16 08:28:11;;;;;;;3.42;2.03;;;6.90;99.90;;;;;;5055262;28;20132;-59
2023/12/16 08:30:37;;;;;;;2.72;2.03;;;6.90;99.90;;;;;;5055424;28;20113;-59
2023/12/16 08:33:03;;;;;;;4.90;2.35;;;7.20;99.90;;;;;;5053748;28;20447;-60
2023/12/16 08:35:29;;;;;;;4.72;2.45;;;7.10;99.90;;;;;;5054989;28;20041;-59
2023/12/16 08:37:56;;;;;;;4.97;2.67;;;7.10;99.90;;;;;;5053913;28;20047;-60
2023/12/16 08:40:22;;;;;;;2.78;1.95;;;7.10;99.90;;;;;;5055023;28;20116;-59
2023/12/16 08:42:48;;;;;;;3.88;2.20;;;7.10;99.90;;;;;;5054784;28;20052;-60
2023/12/16 08:45:14;;;;;;;5.07;2.70;;;7.10;99.90;;;;;;5054727;28;20489;-59
2023/12/16 08:47:40;;;;;;;3.47;2.22;;;7.20;99.90;;;;;;5053858;28;20121;-73
2023/12/16 08:50:07;;;;;;;6.55;2.95;;;7.00;99.90;;;;;;5053395;28;20041;-73
2023/12/16 08:52:33;;;;;;;4.72;2.67;;;7.00;99.90;;;;;;5053653;28;20486;-73
2023/12/16 08:54:59;;;;;;;3.80;2.47;;;7.30;99.90;;;;;;5053416;28;20041;-73
2023/12/16 08:57:27;;;;;;;3.78;2.10;;;7.50;99.90;;;;;;5036647;28;20059;-62
2023/12/16 08:59:53;;;;;;;4.03;2.25;;;7.40;99.90;;;;;;5054708;28;20393;-66
2023/12/16 09:02:19;;;;;;;4.13;2.28;;;7.40;99.90;;;;;;5054197;28;20041;-65
2023/12/16 09:04:45;;;;;;;5.00;2.70;;;7.60;99.90;;;;;;5054497;28;20063;-65
2023/12/16 09:07:11;;;;;;;3.72;2.38;;;7.50;99.90;;;;;;5054328;28;20111;-65
2023/12/16 09:09:38;;;;;;;5.20;2.58;;;7.70;99.90;;;;;;5054497;28;20041;-65
2023/12/16 09:12:05;;;;;;;5.95;3.17;;;7.30;99.90;;;;;;5054239;28;20044;-65
2023/12/16 09:14:30;;;;;;;5.97;2.90;;;7.50;99.90;;;;;;5054466;28;20041;-65
2023/12/16 09:16:56;;;;;;;4.53;2.58;;;7.50;99.90;;;;;;5054115;28;20406;-65
2023/12/16 09:19:22;;;;;;;3.58;2.50;;;7.60;99.90;;;;;;5054322;28;20048;-65
2023/12/16 09:21:48;;;;;;;5.38;2.90;;;7.60;99.90;;;;;;5054346;28;20071;-65
2023/12/16 09:24:14;;;;;;;3.85;2.88;;;8.00;99.90;;;;;;5053241;28;20097;-65
2023/12/16 09:26:40;;;;;;;3.80;2.63;;;8.10;99.90;;;;;;5054175;28;20532;-66
2023/12/16 09:29:06;;;;;;;6.22;2.88;;;7.80;99.90;;;;;;5053797;28;20126;-65
2023/12/16 09:31:32;;;;;;;5.35;2.35;;;7.40;99.90;;;;;;5054140;28;20072;-66
2023/12/16 09:33:58;;;;;;;5.25;2.50;;;7.70;99.90;;;;;;5052840;28;20045;-65
2023/12/16 09:36:27;;;;;;;3.58;2.83;;;7.50;99.90;;;;;;5054029;28;20120;-65
2023/12/16 09:38:57;;;;;;;4.93;2.60;;;7.40;99.90;;;;;;5053679;28;20124;-65
2023/12/16 09:41:30;;;;;;;3.35;2.55;;;7.30;99.90;;;;;;5036188;28;20487;-65
2023/12/16 09:44:00;;;;;;;5.10;2.67;;;7.30;99.90;;;;;;5054137;28;20488;-66
2023/12/16 09:46:36;;;;;;;4.13;2.20;;;7.50;99.90;;;;;;5090280;27;20900;-64
2023/12/16 09:49:05;;;;;;;5.18;2.80;;;7.30;99.90;;;;;;5089070;28;20056;-64
2023/12/16 09:51:31;;;;;;;2.97;2.20;;;7.40;99.90;;;;;;5090607;28;20044;-64
2023/12/16 09:53:56;;;;;;;5.22;3.28;;;7.50;99.90;;;;;;5090552;28;20040;-64
2023/12/16 09:56:22;;;;;;;4.90;3.42;;;7.60;99.90;;;;;;5090362;28;20098;-64
2023/12/16 09:58:51;;;;;;;5.13;2.45;;;7.40;99.90;;;;;;5090536;28;20182;-59
2023/12/16 10:01:17;;;;;;;4.07;2.65;;;7.40;99.90;;;;;;5088788;28;20085;-59
2023/12/16 10:03:46;;;;;;;6.03;3.28;;;7.90;99.90;;;;;;5090016;28;20048;-59
2023/12/16 10:06:12;;;;;;;2.90;2.05;;;7.80;99.90;;;;;;5071769;28;20044;-59
2023/12/16 10:08:40;;;;;;;3.60;2.65;;;7.40;99.90;;;;;;5088813;28;20136;-72
2023/12/16 10:11:06;;;;;;;4.30;2.90;;;7.70;99.90;;;;;;5071720;28;20123;-71
2023/12/16 10:13:52;;;;;;;6.60;2.97;;;7.50;99.90;;;;;;5090113;28;20086;-71
2023/12/16 10:16:17;;;;;;;4.38;2.67;;;7.70;99.90;;;;;;5089643;28;20561;-71
2023/12/16 10:18:44;;;;;;;3.42;2.65;;;;;;;;;;5090049;28;20040;-71
2023/12/16 10:21:09;;;;;;;5.47;3.50;;;7.40;99.90;;;;;;5088404;28;20048;-71
2023/12/16 10:23:37;;;;;;;5.07;2.80;;;7.40;99.90;;;;;;5088359;28;20044;-71
2023/12/16 10:26:03;;;;;;;3.25;2.50;;;7.40;99.90;;;;;;5089791;28;20081;-71
2023/12/16 10:28:32;;;;;;;4.03;2.22;;;7.40;99.90;;;;;;5088280;28;20037;-70
2023/12/16 10:30:59;;;;;;;4.45;2.97;;;7.40;99.90;;;;;;5088279;28;20044;-71
2023/12/16 10:33:27;;;;;;;5.47;2.90;;;7.40;99.90;;;;;;5089883;28;20052;-71
2023/12/16 10:35:52;;;;;;;3.00;2.30;;;7.50;99.90;;;;;;5089795;28;20056;-71
2023/12/16 10:38:18;;;;;;;3.80;2.45;;;7.40;99.90;;;;;;5089805;28;20480;-71
2023/12/16 10:40:44;;;;;;;4.28;2.45;;;7.50;99.90;;;;;;5089777;28;20594;-70
2023/12/16 10:43:10;;;;;;;5.20;3.22;;;7.50;99.90;;;;;;5088118;28;20411;-71
2023/12/16 10:45:36;;;;;;;4.53;2.80;;;7.50;99.90;;;;;;5087907;28;20052;-70
2023/12/16 10:48:06;;;;;;;5.55;2.80;;;7.70;99.90;;;;;;5089189;28;20032;-71
2023/12/16 10:50:33;;;;;;;3.80;2.38;;;7.50;99.90;;;;;;5089580;28;20103;-70
2023/12/16 10:53:03;;;;;;;4.32;2.85;;;7.50;99.90;;;;;;5089528;28;20450;-71
2023/12/16 10:55:42;;;;;;;3.97;2.33;;;7.50;99.90;;;;;;5087920;28;20048;-71
2023/12/16 10:58:23;;;;;;;4.57;2.60;;;7.50;99.90;;;;;;5074169;28;20055;-71
2023/12/16 11:00:51;;;;;;;4.82;3.17;;;7.50;99.90;;;;;;5075548;28;20039;-71
2023/12/16 11:03:28;;;;;;;5.18;2.80;;;7.60;99.90;;;;;;5075817;28;20090;-71
2023/12/16 11:06:02;;;;;;;4.15;2.92;;;7.50;99.90;;;;;;5075683;28;20048;-72
2023/12/16 11:08:27;;;;;;;3.70;2.63;;;7.60;99.90;;;;;;5075817;28;20029;-71
2023/12/16 11:10:55;;;;;;;2.70;2.30;;;7.60;99.90;;;;;;5075682;28;20029;-71
2023/12/16 11:13:22;;;;;;;4.43;2.55;;;7.70;99.90;;;;;;5075365;28;20399;-71
2023/12/16 11:15:54;;;;;;;3.72;2.47;;;7.60;99.90;;;;;;5075550;28;20052;-71
2023/12/16 11:18:22;;;;;;;3.20;2.88;;;7.70;99.90;;;;;;5075649;28;20048;-64
2023/12/16 11:20:56;;;;;;;3.80;2.92;;;7.70;99.90;;;;;;5073982;28;20404;-64
2023/12/16 11:23:23;;;;;;;3.58;2.28;;;7.70;99.90;;;;;;5075431;28;20055;-64
2023/12/16 11:25:51;;;;;;;2.58;2.33;;;7.70;99.90;;;;;;5075305;28;20369;-64
2023/12/16 11:28:18;;;;;;;3.75;2.30;;;7.70;99.90;;;;;;5075008;28;20045;-64
2023/12/16 11:30:44;;;;;;;4.00;2.60;;;7.70;99.90;;;;;;5073800;28;20072;-64
2023/12/16 11:33:11;;;;;;;3.03;2.67;;;7.70;99.90;;;;;;5075263;28;20115;-64
2023/12/16 11:35:37;;;;;;;2.92;2.30;;;7.70;99.90;;;;;;5075149;28;20048;-63
2023/12/16 11:38:06;;;;;;;3.13;2.30;;;7.70;99.90;;;;;;5075192;28;20480;-64
2023/12/16 11:40:42;;;;;;;4.78;2.65;;;7.80;99.90;;;;;;5075081;28;20059;-64
2023/12/16 11:43:09;;;;;;;3.33;2.45;;;7.70;99.90;;;;;;5075027;28;20455;-64
2023/12/16 11:45:42;;;;;;;3.42;2.40;;;7.70;99.90;;;;;;5074576;28;20056;-64
2023/12/16 11:48:10;;;;;;;4.60;2.55;;;7.60;99.90;;;;;;5074967;28;20485;-64
2023/12/16 11:50:39;;;;;;;3.38;2.35;;;7.70;99.90;;;;;;5074931;28;20404;-64
2023/12/16 11:53:05;;;;;;;2.47;2.28;;;;;;;;;;5074827;28;20040;-64
2023/12/16 11:55:31;;;;;;;2.40;2.10;;;;;;;;;;5074809;28;20048;-65
2023/12/16 11:57:57;;;;;;;3.85;2.17;;;;;;;;;;5074437;28;20131;-64
2023/12/16 12:00:23;;;;;;;2.50;1.98;;;;;;;;;;5056580;28;20086;-65
2023/12/16 12:02:50;;;;;;;4.15;2.63;;;;;;;;;;5074634;28;20049;-64
2023/12/16 12:05:16;;;;;;;2.70;2.50;;;;;;;;;;5073170;28;20048;-64
2023/12/16 12:07:42;;;;;;;5.03;2.63;;;;;;;;;;5073970;28;20036;-64
2023/12/16 12:10:09;;;;;;;2.85;2.47;;;;;;;;;;5074170;28;20033;-64
2023/12/16 12:12:35;;;;;;;3.45;2.40;;;;;;;;;;5073180;28;20060;-64
2023/12/16 12:15:01;;;;;;;2.85;2.20;;;;;;;;;;5074137;28;20124;-65
2023/12/16 12:17:28;;;;;;;2.63;2.10;;;;;;;;;;5074083;28;20040;-64
2023/12/16 12:19:57;;;;;;;2.85;2.25;;;;;;;;;;5074443;28;20044;-71
2023/12/16 12:22:23;;;;;;;2.97;2.50;;;;;;;;;;5073984;28;20052;-71
2023/12/16 12:24:50;;;;;;;3.20;2.25;;;;;;;;;;5072596;28;20048;-72
2023/12/16 12:27:16;;;;;;;2.90;2.22;;;;;;;;;;5074199;28;20048;-71
2023/12/16 12:29:57;;;;;;;3.75;2.33;;;;;;;;;;5074217;28;20086;-62
2023/12/16 12:32:24;;;;;;;3.30;2.28;;;;;;;;;;5072557;28;20166;-61
2023/12/16 12:35:19;;;;;;;3.28;2.55;;;;;;;;;;5074031;28;20073;-61
2023/12/16 12:37:46;;;;;;;2.80;2.08;;;;;;;;;;5069187;28;20485;-62
2023/12/16 12:40:12;;;;;;;2.85;2.53;;;;;;;;;;5073024;28;20044;-62
2023/12/16 12:42:55;;;;;;;2.50;1.77;;;8.00;99.90;;;;;;5073901;28;20556;-62
2023/12/16 12:45:28;;;;;;;1.90;1.70;;;8.00;99.90;;;;;;5072131;28;20063;-61
2023/12/16 12:47:55;;;;;;;2.50;2.17;;;8.00;99.90;;;;;;5073484;28;20044;-61
2023/12/16 12:50:28;;;;;;;1.88;1.63;;;8.00;99.90;;;;;;5073663;28;20480;-62
2023/12/16 12:52:54;;;;;;;2.25;2.05;;;8.00;99.90;;;;;;5073694;28;20352;-63
2023/12/16 12:55:19;;;;;;;2.67;1.80;;;8.00;99.90;;;;;;5073698;28;20476;-62
2023/12/16 12:57:46;;;;;;;3.15;2.30;;;8.10;99.90;;;;;;5073596;28;20040;-62
2023/12/16 13:00:13;;;;;;;2.35;1.88;;;8.10;99.90;;;;;;5073565;28;20063;-62